createdAt,value
2018-07-07T00:00:34.133Z,1015.70
2018-07-07T00:01:34.064Z,1015.71
2018-07-07T00:02:33.994Z,1015.72
2018-07-07T00:03:33.925Z,1015.72
2018-07-07T00:04:33.852Z,1015.70
2018-07-07T00:05:33.782Z,1015.73
2018-07-07T00:06:33.710Z,1015.72
2018-07-07T00:07:33.640Z,1015.72
2018-07-07T00:08:33.570Z,1015.72
2018-07-07T00:09:33.500Z,1015.74
2018-07-07T00:10:33.428Z,1015.76
2018-07-07T00:11:33.364Z,1015.77
2018-07-07T00:12:33.287Z,1015.74
2018-07-07T00:13:33.220Z,1015.74
2018-07-07T00:14:33.146Z,1015.77
2018-07-07T00:15:33.077Z,1015.75
2018-07-07T00:16:33.007Z,1015.74
2018-07-07T00:17:32.935Z,1015.73
2018-07-07T00:18:32.866Z,1015.70
2018-07-07T00:19:32.794Z,1015.68
2018-07-07T00:20:32.721Z,1015.70
2018-07-07T00:21:32.664Z,1015.70
2018-07-07T00:22:32.586Z,1015.74
2018-07-07T00:23:32.512Z,1015.71
2018-07-07T00:24:32.448Z,1015.74
2018-07-07T00:25:32.371Z,1015.72
2018-07-07T00:26:32.302Z,1015.71
2018-07-07T00:27:32.230Z,1015.74
2018-07-07T00:28:32.160Z,1015.70
2018-07-07T00:29:32.088Z,1015.75
2018-07-07T00:30:32.023Z,1015.72
2018-07-07T00:31:31.950Z,1015.71
2018-07-07T00:32:31.878Z,1015.67
2018-07-07T00:33:31.807Z,1015.69
2018-07-07T00:34:31.739Z,1015.74
2018-07-07T00:35:31.669Z,1015.72
2018-07-07T00:36:31.593Z,1015.71
2018-07-07T00:37:31.522Z,1015.73
2018-07-07T00:38:31.451Z,1015.74
2018-07-07T00:39:31.382Z,1015.78
2018-07-07T00:40:31.311Z,1015.76
2018-07-07T00:41:31.244Z,1015.80
2018-07-07T00:42:31.169Z,1015.76
2018-07-07T00:43:31.099Z,1015.79
2018-07-07T00:44:31.029Z,1015.79
2018-07-07T00:45:30.955Z,1015.81
2018-07-07T00:46:30.888Z,1015.76
2018-07-07T00:47:30.852Z,1015.79
2018-07-07T00:48:30.751Z,1015.78
2018-07-07T00:49:30.671Z,1015.78
2018-07-07T00:50:30.603Z,1015.79
2018-07-07T00:51:30.529Z,1015.80
2018-07-07T00:52:30.461Z,1015.76
2018-07-07T00:53:30.390Z,1015.78
2018-07-07T00:54:30.339Z,1015.73
2018-07-07T00:55:30.249Z,1015.76
2018-07-07T00:56:30.180Z,1015.71
2018-07-07T00:57:30.114Z,1015.75
2018-07-07T00:58:30.039Z,1015.74
2018-07-07T00:59:29.966Z,1015.74
2018-07-07T01:00:29.897Z,1015.75
2018-07-07T01:01:29.822Z,1015.75
2018-07-07T01:02:29.753Z,1015.76
2018-07-07T01:03:29.681Z,1015.76
2018-07-07T01:04:29.611Z,1015.78
2018-07-07T01:05:29.542Z,1015.77
2018-07-07T01:06:29.470Z,1015.77
2018-07-07T01:07:29.401Z,1015.74
2018-07-07T01:08:29.330Z,1015.75
2018-07-07T01:09:29.288Z,1015.76
2018-07-07T01:10:29.185Z,1015.75
2018-07-07T01:11:29.119Z,1015.76
2018-07-07T01:12:29.040Z,1015.76
2018-07-07T01:13:28.976Z,1015.75
2018-07-07T01:14:28.903Z,1015.77
2018-07-07T01:15:28.835Z,1015.76
2018-07-07T01:16:28.761Z,1015.74
2018-07-07T01:17:28.691Z,1015.75
2018-07-07T01:18:28.618Z,1015.73
2018-07-07T01:19:28.554Z,1015.80
2018-07-07T01:20:28.476Z,1015.76
2018-07-07T01:21:28.406Z,1015.82
2018-07-07T01:22:28.335Z,1015.78
2018-07-07T01:23:28.265Z,1015.76
2018-07-07T01:24:28.199Z,1015.76
2018-07-07T01:25:28.126Z,1015.78
2018-07-07T01:26:28.050Z,1015.78
2018-07-07T01:27:27.981Z,1015.71
2018-07-07T01:28:27.911Z,1015.76
2018-07-07T01:29:27.843Z,1015.76
2018-07-07T01:30:27.767Z,1015.77
2018-07-07T01:31:27.695Z,1015.77
2018-07-07T01:32:27.621Z,1015.79
2018-07-07T01:33:27.556Z,1015.78
2018-07-07T01:34:27.483Z,1015.76
2018-07-07T01:35:27.416Z,1015.80
2018-07-07T01:36:27.340Z,1015.80
2018-07-07T01:37:27.272Z,1015.82
2018-07-07T01:38:27.198Z,1015.80
2018-07-07T01:39:27.129Z,1015.80
2018-07-07T01:40:27.055Z,1015.80
2018-07-07T01:41:26.986Z,1015.81
2018-07-07T01:42:26.919Z,1015.80
2018-07-07T01:43:26.842Z,1015.80
2018-07-07T01:44:26.777Z,1015.78
2018-07-07T01:45:26.700Z,1015.79
2018-07-07T01:46:26.633Z,1015.80
2018-07-07T01:47:26.559Z,1015.77
2018-07-07T01:48:26.489Z,1015.77
2018-07-07T01:49:26.416Z,1015.82
2018-07-07T01:50:26.347Z,1015.78
2018-07-07T01:51:26.275Z,1015.77
2018-07-07T01:52:26.204Z,1015.79
2018-07-07T01:53:26.133Z,1015.74
2018-07-07T01:54:26.070Z,1015.74
2018-07-07T01:55:25.988Z,1015.78
2018-07-07T01:56:25.920Z,1015.77
2018-07-07T01:57:25.843Z,1015.77
2018-07-07T01:58:25.776Z,1015.76
2018-07-07T01:59:25.705Z,1015.77
2018-07-07T02:00:25.639Z,1015.78
2018-07-07T02:01:25.562Z,1015.79
2018-07-07T02:02:25.490Z,1015.76
2018-07-07T02:03:25.420Z,1015.74
2018-07-07T02:04:25.348Z,1015.72
2018-07-07T02:05:25.276Z,1015.72
2018-07-07T02:06:25.207Z,1015.72
2018-07-07T02:07:25.136Z,1015.73
2018-07-07T02:08:25.066Z,1015.72
2018-07-07T02:09:24.995Z,1015.67
2018-07-07T02:10:24.967Z,1015.72
2018-07-07T02:11:24.854Z,1015.70
2018-07-07T02:12:24.783Z,1015.69
2018-07-07T02:13:24.712Z,1015.68
2018-07-07T02:14:24.635Z,1015.71
2018-07-07T02:15:24.566Z,1015.72
2018-07-07T02:16:24.495Z,1015.71
2018-07-07T02:17:24.421Z,1015.73
2018-07-07T02:18:24.354Z,1015.73
2018-07-07T02:19:24.282Z,1015.72
2018-07-07T02:20:24.211Z,1015.74
2018-07-07T02:21:24.139Z,1015.77
2018-07-07T02:22:24.065Z,1015.77
2018-07-07T02:23:24.001Z,1015.78
2018-07-07T02:24:23.925Z,1015.76
2018-07-07T02:25:23.852Z,1015.81
2018-07-07T02:26:23.784Z,1015.75
2018-07-07T02:27:23.712Z,1015.76
2018-07-07T02:28:23.641Z,1015.78
2018-07-07T02:29:23.568Z,1015.75
2018-07-07T02:30:23.497Z,1015.73
2018-07-07T02:31:23.433Z,1015.74
2018-07-07T02:32:23.357Z,1015.77
2018-07-07T02:33:23.284Z,1015.77
2018-07-07T02:34:23.214Z,1015.78
2018-07-07T02:35:23.137Z,1015.79
2018-07-07T02:36:23.078Z,1015.76
2018-07-07T02:37:22.998Z,1015.80
2018-07-07T02:38:22.940Z,1015.74
2018-07-07T02:39:22.858Z,1015.76
2018-07-07T02:40:22.785Z,1015.77
2018-07-07T02:41:22.714Z,1015.73
2018-07-07T02:42:22.644Z,1015.77
2018-07-07T02:43:22.571Z,1015.76
2018-07-07T02:44:22.503Z,1015.74
2018-07-07T02:45:22.430Z,1015.76
2018-07-07T02:46:22.377Z,1015.78
2018-07-07T02:47:22.287Z,1015.75
2018-07-07T02:48:22.221Z,1015.79
2018-07-07T02:49:22.146Z,1015.73
2018-07-07T02:50:22.077Z,1015.74
2018-07-07T02:51:21.998Z,1015.73
2018-07-07T02:52:21.933Z,1015.76
2018-07-07T02:53:21.859Z,1015.75
2018-07-07T02:54:21.791Z,1015.76
2018-07-07T02:55:21.719Z,1015.76
2018-07-07T02:56:21.651Z,1015.76
2018-07-07T02:57:21.577Z,1015.78
2018-07-07T02:58:21.506Z,1015.77
2018-07-07T02:59:21.442Z,1015.76
2018-07-07T03:00:21.361Z,1015.77
2018-07-07T03:01:21.292Z,1015.76
2018-07-07T03:02:21.219Z,1015.72
2018-07-07T03:03:21.195Z,1015.80
2018-07-07T03:04:21.077Z,1015.75
2018-07-07T03:05:21.003Z,1015.76
2018-07-07T03:06:20.935Z,1015.79
2018-07-07T03:07:20.861Z,1015.75
2018-07-07T03:08:20.794Z,1015.76
2018-07-07T03:09:20.721Z,1015.79
2018-07-07T03:10:20.652Z,1015.76
2018-07-07T03:11:20.590Z,1015.80
2018-07-07T03:12:20.505Z,1015.78
2018-07-07T03:13:20.437Z,1015.81
2018-07-07T03:14:20.363Z,1015.77
2018-07-07T03:15:20.291Z,1015.80
2018-07-07T03:16:20.219Z,1015.80
2018-07-07T03:17:20.150Z,1015.82
2018-07-07T03:18:20.077Z,1015.83
2018-07-07T03:19:20.006Z,1015.84
2018-07-07T03:20:19.934Z,1015.85
2018-07-07T03:21:19.862Z,1015.85
2018-07-07T03:22:19.792Z,1015.84
2018-07-07T03:23:19.721Z,1015.82
2018-07-07T03:24:19.651Z,1015.84
2018-07-07T03:25:19.575Z,1015.85
2018-07-07T03:26:19.504Z,1015.95
2018-07-07T03:27:19.433Z,1015.92
2018-07-07T03:28:19.361Z,1015.94
2018-07-07T03:29:19.284Z,1015.95
2018-07-07T03:30:19.225Z,1015.96
2018-07-07T03:31:19.149Z,1015.97
2018-07-07T03:32:19.074Z,1015.95
2018-07-07T03:33:19.006Z,1015.97
2018-07-07T03:34:18.935Z,1015.97
2018-07-07T03:35:18.861Z,1015.99
2018-07-07T03:36:18.790Z,1016.00
2018-07-07T03:37:18.716Z,1016.03
2018-07-07T03:38:18.645Z,1016.03
2018-07-07T03:39:18.578Z,1016.03
2018-07-07T03:40:18.503Z,1016.04
2018-07-07T03:41:18.433Z,1016.09
2018-07-07T03:42:18.436Z,1016.06
2018-07-07T03:43:18.293Z,1016.08
2018-07-07T03:44:18.220Z,1016.10
2018-07-07T03:45:18.144Z,1016.11
2018-07-07T03:46:18.075Z,1016.08
2018-07-07T03:47:18.001Z,1016.12
2018-07-07T03:48:17.932Z,1016.11
2018-07-07T03:49:17.912Z,1016.12
2018-07-07T03:50:17.785Z,1016.17
2018-07-07T03:51:17.716Z,1016.14
2018-07-07T03:52:17.647Z,1016.19
2018-07-07T03:53:17.572Z,1016.18
2018-07-07T03:54:17.503Z,1016.21
2018-07-07T03:55:17.430Z,1016.16
2018-07-07T03:56:17.357Z,1016.16
2018-07-07T03:57:17.286Z,1016.19
2018-07-07T03:58:17.215Z,1016.15
2018-07-07T03:59:17.144Z,1016.18
2018-07-07T04:00:17.074Z,1016.16
2018-07-07T04:01:17.000Z,1016.12
2018-07-07T04:02:16.931Z,1016.15
2018-07-07T04:03:16.857Z,1016.17
2018-07-07T04:04:16.786Z,1016.17
2018-07-07T04:05:16.714Z,1016.17
2018-07-07T04:06:16.648Z,1016.16
2018-07-07T04:07:16.598Z,1016.15
2018-07-07T04:08:16.502Z,1016.18
2018-07-07T04:09:16.432Z,1016.18
2018-07-07T04:10:16.355Z,1016.16
2018-07-07T04:11:16.284Z,1016.16
2018-07-07T04:12:16.216Z,1016.16
2018-07-07T04:13:16.143Z,1016.16
2018-07-07T04:14:16.068Z,1016.19
2018-07-07T04:15:15.999Z,1016.18
2018-07-07T04:16:15.928Z,1016.18
2018-07-07T04:17:15.859Z,1016.18
2018-07-07T04:18:15.782Z,1016.21
2018-07-07T04:19:15.714Z,1016.21
2018-07-07T04:20:15.642Z,1016.25
2018-07-07T04:21:15.577Z,1016.25
2018-07-07T04:22:15.498Z,1016.29
2018-07-07T04:23:15.426Z,1016.31
2018-07-07T04:24:15.355Z,1016.32
2018-07-07T04:25:15.282Z,1016.30
2018-07-07T04:26:15.216Z,1016.31
2018-07-07T04:27:15.168Z,1016.31
2018-07-07T04:28:15.070Z,1016.35
2018-07-07T04:29:15.002Z,1016.33
2018-07-07T04:30:14.927Z,1016.31
2018-07-07T04:31:14.856Z,1016.32
2018-07-07T04:32:14.783Z,1016.33
2018-07-07T04:33:14.711Z,1016.30
2018-07-07T04:34:14.641Z,1016.32
2018-07-07T04:35:14.567Z,1016.31
2018-07-07T04:36:14.498Z,1016.32
2018-07-07T04:37:14.423Z,1016.31
2018-07-07T04:38:14.359Z,1016.29
2018-07-07T04:39:14.281Z,1016.28
2018-07-07T04:40:14.212Z,1016.34
2018-07-07T04:41:14.154Z,1016.31
2018-07-07T04:42:14.067Z,1016.30
2018-07-07T04:43:14.003Z,1016.31
2018-07-07T04:44:13.924Z,1016.33
2018-07-07T04:45:13.856Z,1016.34
2018-07-07T04:46:13.784Z,1016.37
2018-07-07T04:47:13.706Z,1016.35
2018-07-07T04:48:13.639Z,1016.35
2018-07-07T04:49:13.566Z,1016.33
2018-07-07T04:50:13.496Z,1016.36
2018-07-07T04:51:13.424Z,1016.36
2018-07-07T04:52:13.352Z,1016.34
2018-07-07T04:53:13.279Z,1016.33
2018-07-07T04:54:13.211Z,1016.35
2018-07-07T04:55:13.138Z,1016.36
2018-07-07T04:56:13.067Z,1016.37
2018-07-07T04:57:12.995Z,1016.36
2018-07-07T04:58:12.923Z,1016.38
2018-07-07T04:59:12.863Z,1016.39
2018-07-07T05:00:12.779Z,1016.40
2018-07-07T05:01:12.719Z,1016.40
2018-07-07T05:02:12.632Z,1016.39
2018-07-07T05:03:12.567Z,1016.44
2018-07-07T05:04:12.493Z,1016.45
2018-07-07T05:05:12.424Z,1016.44
2018-07-07T05:06:12.352Z,1016.44
2018-07-07T05:07:12.282Z,1016.44
2018-07-07T05:08:12.228Z,1016.41
2018-07-07T05:09:12.141Z,1016.42
2018-07-07T05:10:12.066Z,1016.43
2018-07-07T05:11:12.010Z,1016.42
2018-07-07T05:12:12.054Z,1016.44
2018-07-07T05:13:11.860Z,1016.47
2018-07-07T05:14:11.783Z,1016.50
2018-07-07T05:15:11.711Z,1016.52
2018-07-07T05:16:11.646Z,1016.53
2018-07-07T05:17:11.612Z,1016.54
2018-07-07T05:18:11.499Z,1016.58
2018-07-07T05:19:11.431Z,1016.54
2018-07-07T05:20:11.360Z,1016.55
2018-07-07T05:21:11.282Z,1016.57
2018-07-07T05:22:11.213Z,1016.60
2018-07-07T05:23:11.141Z,1016.59
2018-07-07T05:24:11.073Z,1016.58
2018-07-07T05:25:11.001Z,1016.62
2018-07-07T05:26:10.932Z,1016.57
2018-07-07T05:27:10.860Z,1016.60
2018-07-07T05:28:10.783Z,1016.62
2018-07-07T05:29:10.715Z,1016.61
2018-07-07T05:30:10.644Z,1016.62
2018-07-07T05:31:10.573Z,1016.60
2018-07-07T05:32:10.570Z,1016.62
2018-07-07T05:33:10.431Z,1016.60
2018-07-07T05:34:10.359Z,1016.62
2018-07-07T05:35:10.292Z,1016.64
2018-07-07T05:36:10.220Z,1016.63
2018-07-07T05:37:10.167Z,1016.66
2018-07-07T05:38:10.071Z,1016.65
2018-07-07T05:39:10.009Z,1016.67
2018-07-07T05:40:09.939Z,1016.69
2018-07-07T05:41:09.864Z,1016.64
2018-07-07T05:42:09.797Z,1016.66
2018-07-07T05:43:09.724Z,1016.63
2018-07-07T05:44:09.652Z,1016.63
2018-07-07T05:45:09.582Z,1016.66
2018-07-07T05:46:09.510Z,1016.65
2018-07-07T05:47:09.439Z,1016.63
2018-07-07T05:48:09.368Z,1016.70
2018-07-07T05:49:09.298Z,1016.69
2018-07-07T05:50:09.233Z,1016.70
2018-07-07T05:51:09.159Z,1016.70
2018-07-07T05:52:09.086Z,1016.68
2018-07-07T05:53:09.013Z,1016.69
2018-07-07T05:54:08.945Z,1016.67
2018-07-07T05:55:08.877Z,1016.68
2018-07-07T05:56:08.802Z,1016.67
2018-07-07T05:57:08.736Z,1016.67
2018-07-07T05:58:08.660Z,1016.66
2018-07-07T05:59:08.589Z,1016.69
2018-07-07T06:00:08.521Z,1016.69
2018-07-07T06:01:08.451Z,1016.66
2018-07-07T06:02:08.378Z,1016.68
2018-07-07T06:03:08.308Z,1016.69
2018-07-07T06:04:08.237Z,1016.68
2018-07-07T06:05:08.168Z,1016.71
2018-07-07T06:06:08.097Z,1016.68
2018-07-07T06:07:08.027Z,1016.67
2018-07-07T06:08:07.956Z,1016.71
2018-07-07T06:09:07.884Z,1016.69
2018-07-07T06:10:07.813Z,1016.68
2018-07-07T06:11:07.748Z,1016.68
2018-07-07T06:12:07.667Z,1016.70
2018-07-07T06:13:07.609Z,1016.72
2018-07-07T06:14:07.533Z,1016.68
2018-07-07T06:15:07.463Z,1016.67
2018-07-07T06:16:07.391Z,1016.67
2018-07-07T06:17:07.318Z,1016.70
2018-07-07T06:18:07.256Z,1016.71
2018-07-07T06:19:07.177Z,1016.71
2018-07-07T06:20:07.109Z,1016.75
2018-07-07T06:21:07.038Z,1016.75
2018-07-07T06:22:06.972Z,1016.76
2018-07-07T06:23:06.897Z,1016.77
2018-07-07T06:24:06.828Z,1016.77
2018-07-07T06:25:06.756Z,1016.75
2018-07-07T06:26:06.690Z,1016.77
2018-07-07T06:27:06.617Z,1016.76
2018-07-07T06:28:06.549Z,1016.74
2018-07-07T06:29:06.475Z,1016.79
2018-07-07T06:30:06.408Z,1016.80
2018-07-07T06:31:06.342Z,1016.78
2018-07-07T06:32:06.267Z,1016.77
2018-07-07T06:33:06.195Z,1016.82
2018-07-07T06:34:06.127Z,1016.81
2018-07-07T06:35:06.061Z,1016.79
2018-07-07T06:36:05.988Z,1016.82
2018-07-07T06:37:05.916Z,1016.81
2018-07-07T06:38:05.846Z,1016.78
2018-07-07T06:39:05.778Z,1016.84
2018-07-07T06:40:05.708Z,1016.83
2018-07-07T06:41:05.635Z,1016.87
2018-07-07T06:42:05.574Z,1016.90
2018-07-07T06:43:05.500Z,1016.89
2018-07-07T06:44:05.432Z,1016.90
2018-07-07T06:45:05.371Z,1016.92
2018-07-07T06:46:05.292Z,1016.91
2018-07-07T06:47:05.219Z,1016.93
2018-07-07T06:48:05.150Z,1016.92
2018-07-07T06:49:05.080Z,1016.93
2018-07-07T06:50:05.010Z,1016.92
2018-07-07T06:51:04.941Z,1016.92
2018-07-07T06:52:04.872Z,1016.90
2018-07-07T06:53:04.801Z,1016.93
2018-07-07T06:54:04.816Z,1016.90
2018-07-07T06:55:04.664Z,1016.92
2018-07-07T06:56:04.601Z,1016.88
2018-07-07T06:57:04.523Z,1016.93
2018-07-07T06:58:04.454Z,1016.89
2018-07-07T06:59:04.390Z,1016.89
2018-07-07T07:00:04.439Z,1016.86
2018-07-07T07:01:04.253Z,1016.87
2018-07-07T07:02:04.182Z,1016.85
2018-07-07T07:03:04.108Z,1016.87
2018-07-07T07:04:04.045Z,1016.88
2018-07-07T07:05:03.973Z,1016.87
2018-07-07T07:06:03.902Z,1016.85
2018-07-07T07:07:03.833Z,1016.88
2018-07-07T07:08:03.764Z,1016.85
2018-07-07T07:09:03.702Z,1016.90
2018-07-07T07:10:03.627Z,1016.90
2018-07-07T07:11:03.557Z,1016.85
2018-07-07T07:12:03.506Z,1016.86
2018-07-07T07:13:03.417Z,1016.86
2018-07-07T07:14:03.349Z,1016.88
2018-07-07T07:15:03.283Z,1016.86
2018-07-07T07:16:03.216Z,1016.87
2018-07-07T07:17:03.144Z,1016.87
2018-07-07T07:18:03.075Z,1016.84
2018-07-07T07:19:03.006Z,1016.82
2018-07-07T07:20:03.014Z,1016.81
2018-07-07T07:21:02.868Z,1016.83
2018-07-07T07:22:02.800Z,1016.88
2018-07-07T07:23:02.734Z,1016.87
2018-07-07T07:24:02.665Z,1016.90
2018-07-07T07:25:02.595Z,1016.88
2018-07-07T07:26:02.564Z,1016.92
2018-07-07T07:27:02.459Z,1016.93
2018-07-07T07:28:02.438Z,1016.94
2018-07-07T07:29:02.321Z,1016.89
2018-07-07T07:30:02.256Z,1016.94
2018-07-07T07:31:02.187Z,1016.99
2018-07-07T07:32:02.137Z,1016.97
2018-07-07T07:33:02.158Z,1016.99
2018-07-07T07:34:01.979Z,1016.96
2018-07-07T07:35:01.910Z,1016.97
2018-07-07T07:36:01.964Z,1016.97
2018-07-07T07:37:01.843Z,1016.97
2018-07-07T07:38:01.712Z,1016.99
2018-07-07T07:39:01.752Z,1016.97
2018-07-07T07:40:01.569Z,1016.95
2018-07-07T07:41:01.504Z,1016.98
2018-07-07T07:42:01.503Z,1017.00
2018-07-07T07:43:01.367Z,1016.96
2018-07-07T07:44:01.369Z,1017.00
2018-07-07T07:45:01.232Z,1017.01
2018-07-07T07:46:01.160Z,1016.99
2018-07-07T07:47:01.096Z,1016.97
2018-07-07T07:48:01.029Z,1016.96
2018-07-07T07:49:00.960Z,1017.00
2018-07-07T07:50:00.943Z,1016.95
2018-07-07T07:51:00.827Z,1016.98
2018-07-07T07:52:00.758Z,1016.98
2018-07-07T07:53:00.705Z,1016.93
2018-07-07T07:54:00.616Z,1017.01
2018-07-07T07:55:00.548Z,1017.00
2018-07-07T07:56:00.482Z,1016.99
2018-07-07T07:57:00.412Z,1016.96
2018-07-07T07:58:00.346Z,1016.99
2018-07-07T07:59:00.283Z,1016.96
2018-07-07T08:00:00.212Z,1016.97
2018-07-07T08:01:00.145Z,1016.96
2018-07-07T08:02:00.081Z,1016.96
2018-07-07T08:03:00.140Z,1016.97
2018-07-07T08:04:00.035Z,1016.96
2018-07-07T08:04:59.871Z,1016.96
2018-07-07T08:05:59.804Z,1016.93
2018-07-07T08:06:59.736Z,1016.94
2018-07-07T08:07:59.667Z,1016.92
2018-07-07T08:08:59.597Z,1016.90
2018-07-07T08:09:59.529Z,1016.93
2018-07-07T08:10:59.465Z,1016.94
2018-07-07T08:11:59.392Z,1016.92
2018-07-07T08:12:59.327Z,1016.94
2018-07-07T08:13:59.262Z,1016.98
2018-07-07T08:14:59.752Z,1016.95
2018-07-07T08:15:59.123Z,1016.99
2018-07-07T08:16:59.073Z,1016.99
2018-07-07T08:17:58.986Z,1016.99
2018-07-07T08:18:58.920Z,1016.99
2018-07-07T08:19:58.852Z,1017.00
2018-07-07T08:20:58.787Z,1016.99
2018-07-07T08:21:58.720Z,1017.02
2018-07-07T08:22:58.677Z,1017.00
2018-07-07T08:23:58.581Z,1017.01
2018-07-07T08:24:58.514Z,1017.06
2018-07-07T08:25:58.455Z,1017.04
2018-07-07T08:26:58.396Z,1017.05
2018-07-07T08:27:58.312Z,1017.06
2018-07-07T08:28:58.320Z,1017.04
2018-07-07T08:29:58.567Z,1017.08
2018-07-07T08:30:58.117Z,1017.03
2018-07-07T08:31:58.077Z,1017.07
2018-07-07T08:32:57.980Z,1017.07
2018-07-07T08:33:57.931Z,1017.07
2018-07-07T08:34:57.841Z,1017.10
2018-07-07T08:35:57.779Z,1017.11
2018-07-07T08:36:57.705Z,1017.05
2018-07-07T08:37:57.640Z,1017.05
2018-07-07T08:38:57.571Z,1017.07
2018-07-07T08:39:57.634Z,1017.07
2018-07-07T08:40:57.436Z,1017.08
2018-07-07T08:41:57.402Z,1017.11
2018-07-07T08:42:57.302Z,1017.11
2018-07-07T08:43:57.375Z,1017.11
2018-07-07T08:44:57.185Z,1017.13
2018-07-07T08:45:57.109Z,1017.17
2018-07-07T08:46:57.034Z,1017.11
2018-07-07T08:47:57.066Z,1017.12
2018-07-07T08:48:56.902Z,1017.14
2018-07-07T08:49:56.832Z,1017.11
2018-07-07T08:50:56.770Z,1017.18
2018-07-07T08:51:56.699Z,1017.11
2018-07-07T08:52:56.632Z,1017.18
2018-07-07T08:53:56.565Z,1017.13
2018-07-07T08:54:56.500Z,1017.13
2018-07-07T08:55:56.431Z,1017.11
2018-07-07T08:56:56.363Z,1017.08
2018-07-07T08:57:56.298Z,1017.12
2018-07-07T08:58:56.233Z,1017.12
2018-07-07T08:59:56.166Z,1017.18
2018-07-07T09:00:56.099Z,1017.14
2018-07-07T09:01:56.027Z,1017.14
2018-07-07T09:02:55.968Z,1017.10
2018-07-07T09:03:55.898Z,1017.13
2018-07-07T09:04:55.834Z,1017.09
2018-07-07T09:05:55.789Z,1017.08
2018-07-07T09:06:55.703Z,1017.06
2018-07-07T09:07:55.734Z,1017.12
2018-07-07T09:08:55.570Z,1017.07
2018-07-07T09:09:55.501Z,1017.08
2018-07-07T09:10:55.434Z,1017.12
2018-07-07T09:11:55.559Z,1017.07
2018-07-07T09:12:55.404Z,1017.09
2018-07-07T09:13:55.681Z,1017.13
2018-07-07T09:14:55.298Z,1017.11
2018-07-07T09:15:55.390Z,1017.09
2018-07-07T09:16:55.046Z,1017.15
2018-07-07T09:17:54.974Z,1017.15
2018-07-07T09:18:54.974Z,1017.19
2018-07-07T09:19:54.847Z,1017.18
2018-07-07T09:20:54.780Z,1017.16
2018-07-07T09:21:54.718Z,1017.17
2018-07-07T09:22:54.653Z,1017.12
2018-07-07T09:23:54.603Z,1017.20
2018-07-07T09:24:54.527Z,1017.18
2018-07-07T09:25:54.465Z,1017.19
2018-07-07T09:26:54.418Z,1017.23
2018-07-07T09:27:54.531Z,1017.14
2018-07-07T09:28:54.289Z,1017.16
2018-07-07T09:29:54.223Z,1017.18
2018-07-07T09:30:54.176Z,1017.18
2018-07-07T09:31:54.101Z,1017.13
2018-07-07T09:32:54.179Z,1017.19
2018-07-07T09:33:53.987Z,1017.18
2018-07-07T09:34:53.924Z,1017.12
2018-07-07T09:35:53.876Z,1017.13
2018-07-07T09:36:53.803Z,1017.08
2018-07-07T09:37:53.754Z,1017.07
2018-07-07T09:38:53.745Z,1017.06
2018-07-07T09:39:53.630Z,1017.07
2018-07-07T09:40:53.985Z,1017.07
2018-07-07T09:41:53.519Z,1017.01
2018-07-07T09:42:53.529Z,1017.00
2018-07-07T09:43:53.413Z,1017.05
2018-07-07T09:44:53.345Z,1017.02
2018-07-07T09:45:53.342Z,1017.04
2018-07-07T09:46:53.236Z,1017.02
2018-07-07T09:47:53.177Z,1017.04
2018-07-07T09:48:53.123Z,1017.08
2018-07-07T09:49:53.065Z,1017.06
2018-07-07T09:50:53.009Z,1017.05
2018-07-07T09:51:52.969Z,1017.00
2018-07-07T09:52:52.899Z,1016.99
2018-07-07T09:53:52.843Z,1017.05
2018-07-07T09:54:52.789Z,1017.01
2018-07-07T09:55:52.733Z,1016.98
2018-07-07T09:56:52.685Z,1017.03
2018-07-07T09:57:52.625Z,1017.02
2018-07-07T09:58:52.574Z,1017.06
2018-07-07T09:59:52.519Z,1016.99
2018-07-07T10:00:52.484Z,1017.04
2018-07-07T10:01:52.457Z,1017.01
2018-07-07T10:02:52.353Z,1017.04
2018-07-07T10:03:52.301Z,1017.03
2018-07-07T10:04:52.249Z,1017.04
2018-07-07T10:05:52.196Z,1017.00
2018-07-07T10:06:52.142Z,1017.00
2018-07-07T10:07:52.088Z,1017.04
2018-07-07T10:08:52.033Z,1017.05
2018-07-07T10:09:51.987Z,1017.03
2018-07-07T10:10:51.928Z,1017.07
2018-07-07T10:11:51.883Z,1017.06
2018-07-07T10:12:51.818Z,1017.07
2018-07-07T10:13:51.764Z,1017.05
2018-07-07T10:14:51.712Z,1017.07
2018-07-07T10:15:51.663Z,1017.11
2018-07-07T10:16:51.604Z,1017.07
2018-07-07T10:17:51.556Z,1017.03
2018-07-07T10:18:51.501Z,1017.02
2018-07-07T10:19:51.503Z,1016.97
2018-07-07T10:20:51.387Z,1017.01
2018-07-07T10:21:51.347Z,1016.97
2018-07-07T10:22:51.357Z,1016.96
2018-07-07T10:23:51.232Z,1016.98
2018-07-07T10:24:51.173Z,1017.02
2018-07-07T10:25:51.119Z,1017.02
2018-07-07T10:26:51.067Z,1017.02
2018-07-07T10:27:51.013Z,1016.99
2018-07-07T10:28:51.090Z,1017.07
2018-07-07T10:29:50.906Z,1017.03
2018-07-07T10:30:50.849Z,1017.02
2018-07-07T10:31:50.869Z,1016.96
2018-07-07T10:32:50.743Z,1016.97
2018-07-07T10:33:50.693Z,1016.99
2018-07-07T10:34:50.634Z,1017.02
2018-07-07T10:35:50.610Z,1017.02
2018-07-07T10:36:50.529Z,1017.04
2018-07-07T10:37:50.478Z,1016.98
2018-07-07T10:38:50.421Z,1016.98
2018-07-07T10:39:50.370Z,1017.00
2018-07-07T10:40:50.310Z,1016.99
2018-07-07T10:41:50.260Z,1016.97
2018-07-07T10:42:50.207Z,1016.95
2018-07-07T10:43:50.151Z,1016.98
2018-07-07T10:44:50.096Z,1016.93
2018-07-07T10:45:50.215Z,1016.89
2018-07-07T10:46:50.025Z,1016.84
2018-07-07T10:47:49.932Z,1016.82
2018-07-07T10:48:49.919Z,1016.94
2018-07-07T10:49:49.821Z,1016.80
2018-07-07T10:50:49.767Z,1016.86
2018-07-07T10:51:49.711Z,1016.84
2018-07-07T10:52:49.655Z,1016.81
2018-07-07T10:53:49.667Z,1016.97
2018-07-07T10:54:49.541Z,1016.94
2018-07-07T10:55:49.485Z,1016.97
2018-07-07T10:56:49.433Z,1016.76
2018-07-07T10:57:49.372Z,1016.99
2018-07-07T10:58:49.322Z,1017.01
2018-07-07T10:59:49.252Z,1016.93
2018-07-07T11:00:49.192Z,1016.83
2018-07-07T11:01:49.140Z,1016.86
2018-07-07T11:02:49.076Z,1016.82
2018-07-07T11:03:49.021Z,1016.78
2018-07-07T11:04:48.960Z,1016.81
2018-07-07T11:05:48.903Z,1016.81
2018-07-07T11:06:48.840Z,1016.79
2018-07-07T11:07:48.785Z,1016.80
2018-07-07T11:08:48.719Z,1016.75
2018-07-07T11:09:48.662Z,1016.69
2018-07-07T11:10:48.603Z,1016.71
2018-07-07T11:11:48.621Z,1016.94
2018-07-07T11:12:48.478Z,1016.79
2018-07-07T11:13:48.418Z,1016.74
2018-07-07T11:14:48.358Z,1016.70
2018-07-07T11:15:48.307Z,1016.71
2018-07-07T11:16:48.263Z,1016.78
2018-07-07T11:17:48.173Z,1016.98
2018-07-07T11:18:48.114Z,1016.96
2018-07-07T11:19:48.052Z,1016.84
2018-07-07T11:20:47.989Z,1017.08
2018-07-07T11:21:47.927Z,1017.06
2018-07-07T11:22:47.865Z,1017.07
2018-07-07T11:23:47.808Z,1017.02
2018-07-07T11:24:47.745Z,1017.09
2018-07-07T11:25:47.686Z,1017.06
2018-07-07T11:26:47.626Z,1017.05
2018-07-07T11:27:47.566Z,1017.04
2018-07-07T11:28:47.506Z,1016.98
2018-07-07T11:29:47.461Z,1017.04
2018-07-07T11:30:47.389Z,1017.11
2018-07-07T11:31:47.335Z,1017.12
2018-07-07T11:32:47.271Z,1016.87
2018-07-07T11:33:47.216Z,1016.88
2018-07-07T11:34:47.158Z,1017.02
2018-07-07T11:35:47.100Z,1016.88
2018-07-07T11:36:47.098Z,1016.82
2018-07-07T11:37:46.986Z,1016.76
2018-07-07T11:38:46.927Z,1016.79
2018-07-07T11:39:46.875Z,1016.76
2018-07-07T11:40:46.834Z,1016.80
2018-07-07T11:41:46.753Z,1016.73
2018-07-07T11:42:46.696Z,1016.71
2018-07-07T11:43:46.637Z,1016.67
2018-07-07T11:44:46.580Z,1016.67
2018-07-07T11:45:46.522Z,1016.66
2018-07-07T11:46:46.463Z,1016.66
2018-07-07T11:47:46.403Z,1016.73
2018-07-07T11:48:46.349Z,1016.73
2018-07-07T11:49:46.285Z,1016.85
2018-07-07T11:50:46.222Z,1016.80
2018-07-07T11:51:46.165Z,1016.76
2018-07-07T11:52:46.105Z,1016.73
2018-07-07T11:53:46.046Z,1016.67
2018-07-07T11:54:45.985Z,1016.68
2018-07-07T11:55:45.922Z,1016.71
2018-07-07T11:56:45.862Z,1016.72
2018-07-07T11:57:45.798Z,1016.65
2018-07-07T11:58:45.763Z,1016.67
2018-07-07T11:59:45.677Z,1016.77
2018-07-07T12:00:45.622Z,1016.70
2018-07-07T12:01:45.552Z,1016.65
2018-07-07T12:02:45.492Z,1016.73
2018-07-07T12:03:45.429Z,1016.69
2018-07-07T12:04:45.393Z,1016.68